Etusivu
METAR-TAF:

METAR-TAF

Lentoasemat :

Chetwynd, Brittiläinen Kolumbia, Kanada

Leveyspiiri: 55-42N, Pituuspiiri: 121-38W, korkeus merenpinnasta: 609 m

Tämänhetkinen sää

Tämä raportti tehtiin 12 tuntia ja 35 minuuttia sitten, kello 00.00 UTC
Tuuli 7 kn etelästä/lounaasta
Lämpötila 4°C
Kosteus 75%
Ilmanpaine 1008 hPa
Näkyvyys: 24.1 km
Muutamia pilviä 3000 ft:n korkeudessa
Muutamia pilviä 9000 ft:n korkeudessa
Hajanaisia pilviä 10000 ft:n korkeudessa
Hajonneita pilviä 22000 ft:n korkeudessa

METAR: CYCQ 130000Z 21007KT 15SM FEW030 FEW090 SCT100 BKN220 04/M00 A2976 RMK SC1AC1AC2CI1 VIS DUE LO CLD S+W LAST STFD OBS/NEXT 131400Z SLP108

Aika: 05:35 (12:35 UTC)


TAF: puuttuu

Säähavainnot ja -ennusteet yli 4000 lentoasemalta (METAR- ja TAF-raportit).

Käytössä olevat sääasemat on merkitty karttaan keltaisilla ja punaisilla pisteillä.

Aseta hiiri pisteen päälle nähdäksesi sääaseman nimen.

Klikkaa sitten nähdäksesi säähavainnot ja -ennusteet.

Kartan vaihtaminen: klikkaa mustalla rastilla varustettuja vihreitä pisteitä, niin voit zoomata sisään; viivalla varustettua vihreää pistettä, niin voit zoomata ulos tai vihreitä nuolia, niin pääset viereisille kartoille.


METAR-TAF: